Time;durP1;ratioP1;P1;durP2;ratioP2;P2;SDS_P1;SDS_P2;PMS_P1;PMS_P2;Temp;Humidity;BMP_temperature;BMP_pressure;BME280_temperature;BME280_humidity;BME280_pressure;Samples;Min_cycle;Max_cycle;Signal;HPM_P1;HPM_P2
2023/05/31 00:02:47;;;;;;;16.90;6.23;;;16.00;72.60;;;;;;10601633;27;20661;-72
2023/05/31 00:07:47;;;;;;;18.57;6.30;;;15.90;73.20;;;;;;10594546;27;20684;-72
2023/05/31 00:12:48;;;;;;;16.73;5.40;;;15.80;73.50;;;;;;10580290;27;20216;-72
2023/05/31 00:17:48;;;;;;;12.83;4.50;;;15.80;74.10;;;;;;10598166;27;20228;-71
2023/05/31 00:22:49;;;;;;;15.17;3.93;;;15.60;74.70;;;;;;10597601;27;20218;-72
2023/05/31 00:27:51;;;;;;;7.60;3.20;;;15.60;75.40;;;;;;10600892;28;20237;-72
2023/05/31 00:32:51;;;;;;;9.27;3.20;;;15.50;76.10;;;;;;10594757;27;20275;-72
2023/05/31 00:37:52;;;;;;;13.83;3.83;;;15.40;76.80;;;;;;10605447;27;20217;-73
2023/05/31 00:42:52;;;;;;;7.27;3.10;;;15.40;77.60;;;;;;10584431;27;20664;-74
2023/05/31 00:47:53;;;;;;;7.17;2.73;;;15.30;78.00;;;;;;10605682;27;20222;-71
2023/05/31 00:52:55;;;;;;;11.23;3.23;;;15.30;78.70;;;;;;10598190;27;20248;-73
2023/05/31 00:57:57;;;;;;;10.03;3.63;;;15.20;79.10;;;;;;10603211;27;20692;-72
2023/05/31 01:03:02;;;;;;;10.73;3.43;;;15.20;79.50;;;;;;10587684;27;20220;-67
2023/05/31 01:08:02;;;;;;;13.03;3.27;;;15.20;79.80;;;;;;10606937;27;20217;-70
2023/05/31 01:13:09;;;;;;;9.43;3.37;;;15.10;80.30;;;;;;10602755;27;20212;-68
2023/05/31 01:18:36;;;;;;;8.73;3.33;;;15.10;80.80;;;;;;10598690;27;20210;-69
2023/05/31 01:23:53;;;;;;;10.70;3.63;;;15.00;81.40;;;;;;10587060;27;20213;-70
2023/05/31 01:28:59;;;;;;;10.63;3.63;;;15.00;82.00;;;;;;10601488;27;20213;-68
2023/05/31 01:34:00;;;;;;;9.53;3.43;;;14.90;82.50;;;;;;10595383;27;20206;-69
2023/05/31 01:39:03;;;;;;;11.57;3.63;;;14.80;83.00;;;;;;10602110;27;20248;-68
2023/05/31 01:44:05;;;;;;;8.73;3.10;;;14.80;83.60;;;;;;10595719;27;20300;-70
2023/05/31 01:49:05;;;;;;;9.67;2.90;;;14.70;84.10;;;;;;10598235;27;20753;-69
2023/05/31 01:54:06;;;;;;;9.17;2.87;;;14.60;84.70;;;;;;10602258;27;20387;-68
2023/05/31 01:59:07;;;;;;;8.80;3.30;;;14.60;85.30;;;;;;10603821;27;20221;-67
2023/05/31 02:04:08;;;;;;;10.47;2.87;;;14.40;85.90;;;;;;10601853;27;20586;-67
2023/05/31 02:09:09;;;;;;;7.37;3.10;;;14.40;87.40;;;;;;10602517;27;20220;-70
2023/05/31 02:14:10;;;;;;;12.03;3.33;;;14.30;87.40;;;;;;10592599;27;20649;-68
2023/05/31 02:19:13;;;;;;;10.50;3.50;;;14.30;88.20;;;;;;10598776;27;20238;-68
2023/05/31 02:24:14;;;;;;;9.10;3.20;;;14.20;89.20;;;;;;10601026;27;20217;-67
2023/05/31 02:29:14;;;;;;;10.53;3.20;;;14.10;90.00;;;;;;10583019;27;20216;-68
2023/05/31 02:34:16;;;;;;;6.63;3.10;;;14.10;90.50;;;;;;10594349;27;20229;-67
2023/05/31 02:39:19;;;;;;;11.60;4.03;;;14.00;90.90;;;;;;10601545;27;20229;-69
2023/05/31 02:44:23;;;;;;;9.47;3.60;;;13.90;91.30;;;;;;10583676;27;20225;-69
2023/05/31 02:49:23;;;;;;;9.20;3.70;;;13.90;91.70;;;;;;10575501;27;20225;-69
2023/05/31 02:54:24;;;;;;;8.97;3.77;;;13.80;92.20;;;;;;10600907;27;20704;-69
2023/05/31 02:59:25;;;;;;;9.90;3.80;;;13.80;92.60;;;;;;10582294;27;20221;-68
2023/05/31 03:04:25;;;;;;;11.63;3.97;;;13.80;93.00;;;;;;10584659;27;20293;-69
2023/05/31 03:09:26;;;;;;;9.97;3.93;;;13.80;93.40;;;;;;10602103;27;20313;-68
2023/05/31 03:14:27;;;;;;;9.50;3.70;;;13.70;93.80;;;;;;10599919;27;20275;-68
2023/05/31 03:19:27;;;;;;;8.40;3.47;;;13.70;94.20;;;;;;10592323;27;20230;-68
2023/05/31 03:24:28;;;;;;;9.30;4.03;;;13.70;94.60;;;;;;10574782;27;20254;-70
2023/05/31 03:29:29;;;;;;;11.33;3.83;;;13.70;95.00;;;;;;10582593;27;20237;-69
2023/05/31 03:34:30;;;;;;;8.27;3.03;;;13.60;95.50;;;;;;10598965;27;20676;-71
2023/05/31 03:39:31;;;;;;;8.60;3.80;;;13.60;96.00;;;;;;10582105;27;20316;-71
2023/05/31 03:44:32;;;;;;;11.23;4.10;;;13.60;96.30;;;;;;10592390;27;20590;-68
2023/05/31 03:49:32;;;;;;;10.70;3.87;;;13.60;96.70;;;;;;10601146;27;20209;-71
2023/05/31 03:54:33;;;;;;;9.10;3.90;;;13.60;96.90;;;;;;10592978;27;20305;-70
2023/05/31 03:59:35;;;;;;;13.93;4.33;;;13.60;96.90;;;;;;10597005;27;20655;-67
2023/05/31 04:04:36;;;;;;;8.27;3.73;;;13.80;96.90;;;;;;10580188;27;20281;-71
2023/05/31 04:09:36;;;;;;;8.93;4.03;;;13.80;97.10;;;;;;10575596;27;20244;-71
2023/05/31 04:14:37;;;;;;;9.13;4.40;;;13.80;97.10;;;;;;10579316;27;20684;-72
2023/05/31 04:19:38;;;;;;;11.53;3.77;;;13.80;97.40;;;;;;10582535;27;20217;-68
2023/05/31 04:24:38;;;;;;;8.87;3.73;;;13.90;97.60;;;;;;10573427;28;20282;-70
2023/05/31 04:29:39;;;;;;;10.90;4.20;;;13.90;97.80;;;;;;10585735;28;20240;-66
2023/05/31 04:34:40;;;;;;;8.30;3.73;;;14.00;97.90;;;;;;10597336;28;20590;-69
2023/05/31 04:39:41;;;;;;;11.67;4.37;;;14.30;97.60;;;;;;10577859;28;20213;-68
2023/05/31 04:44:41;;;;;;;9.87;3.80;;;14.90;96.40;;;;;;10573993;28;20224;-68
2023/05/31 04:49:42;;;;;;;10.13;3.90;;;15.00;95.30;;;;;;10576895;28;20695;-68
2023/05/31 04:54:42;;;;;;;7.47;3.60;;;14.90;95.80;;;;;;10592217;28;20205;-67
2023/05/31 04:59:43;;;;;;;9.73;3.80;;;15.00;95.90;;;;;;10591594;28;20221;-67
2023/05/31 05:04:43;;;;;;;10.70;3.80;;;16.80;92.00;;;;;;10594143;28;20270;-69
2023/05/31 05:09:44;;;;;;;7.77;3.80;;;18.40;86.90;;;;;;10573488;28;20315;-67
2023/05/31 05:14:45;;;;;;;8.40;3.70;;;19.20;80.80;;;;;;10593017;28;20232;-67
2023/05/31 05:19:45;;;;;;;7.37;3.87;;;18.60;81.30;;;;;;10586673;27;20226;-67
2023/05/31 05:24:46;;;;;;;9.33;4.07;;;18.90;81.60;;;;;;10599359;27;20228;-68
2023/05/31 05:29:47;;;;;;;9.73;3.30;;;20.40;75.80;;;;;;10582493;27;20700;-67
2023/05/31 05:34:47;;;;;;;7.40;3.40;;;21.80;70.40;;;;;;10580809;27;20213;-70
2023/05/31 05:39:48;;;;;;;7.83;3.37;;;22.60;66.40;;;;;;10598120;27;20730;-67
2023/05/31 05:44:48;;;;;;;7.07;3.33;;;23.30;62.20;;;;;;10612892;27;20240;-68
2023/05/31 05:49:53;;;;;;;11.10;4.33;;;23.50;60.90;;;;;;10580781;27;20228;-67
2023/05/31 05:54:54;;;;;;;10.77;4.23;;;23.70;59.50;;;;;;10598456;27;20221;-65
2023/05/31 05:59:56;;;;;;;9.90;3.27;;;24.30;58.00;;;;;;10594850;27;20221;-66
2023/05/31 06:04:57;;;;;;;8.43;3.20;;;24.80;56.10;;;;;;10598632;27;20217;-67
2023/05/31 06:10:02;;;;;;;7.50;3.20;;;25.20;55.20;;;;;;10599332;27;20240;-64
2023/05/31 06:15:03;;;;;;;7.10;3.40;;;26.00;53.60;;;;;;10598090;27;20221;-67
2023/05/31 06:20:08;;;;;;;6.77;3.23;;;25.50;53.40;;;;;;10577595;27;20708;-69
2023/05/31 06:25:09;;;;;;;11.03;3.10;;;26.00;52.70;;;;;;10609425;27;20216;-69
2023/05/31 06:30:10;;;;;;;9.87;3.03;;;26.20;51.40;;;;;;10595031;27;20177;-69
2023/05/31 06:35:11;;;;;;;7.20;2.90;;;26.20;51.60;;;;;;10576393;27;20186;-69
2023/05/31 06:40:11;;;;;;;10.03;3.23;;;26.70;49.60;;;;;;10589918;27;20585;-71
2023/05/31 06:45:12;;;;;;;9.23;3.63;;;26.90;49.90;;;;;;10581244;27;20280;-70
2023/05/31 06:50:13;;;;;;;8.10;3.13;;;27.00;47.90;;;;;;10575762;27;20659;-70
2023/05/31 06:55:13;;;;;;;7.93;3.13;;;27.40;46.30;;;;;;10581632;27;20189;-69
2023/05/31 07:00:14;;;;;;;8.03;2.90;;;27.80;44.70;;;;;;10577240;27;20614;-70
2023/05/31 07:05:15;;;;;;;4.63;2.50;;;27.70;45.50;;;;;;10592963;27;20197;-68
2023/05/31 07:10:15;;;;;;;9.60;3.40;;;28.10;45.20;;;;;;10581210;27;20181;-71
2023/05/31 07:15:16;;;;;;;7.97;2.90;;;28.40;44.20;;;;;;10592623;27;20265;-70
2023/05/31 07:20:17;;;;;;;7.27;3.10;;;28.40;43.90;;;;;;10591745;27;20224;-70
2023/05/31 07:25:17;;;;;;;7.57;3.13;;;28.40;44.50;;;;;;10599300;27;20204;-70
2023/05/31 07:30:18;;;;;;;5.23;2.70;;;29.10;42.70;;;;;;10592378;27;20278;-69
2023/05/31 07:35:18;;;;;;;5.47;2.93;;;28.70;42.70;;;;;;10580880;27;20177;-69
2023/05/31 07:40:20;;;;;;;7.50;3.10;;;29.40;41.60;;;;;;10591564;27;20772;-69
2023/05/31 07:45:21;;;;;;;6.13;2.80;;;29.00;42.00;;;;;;10578913;27;20192;-70
2023/05/31 07:50:21;;;;;;;6.07;2.90;;;29.40;41.80;;;;;;10605539;27;20246;-71
2023/05/31 07:55:22;;;;;;;8.13;3.57;;;30.30;40.30;;;;;;10589988;27;20277;-69
2023/05/31 08:00:23;;;;;;;6.63;3.03;;;30.10;39.90;;;;;;10590331;27;20213;-70
2023/05/31 08:05:24;;;;;;;6.83;3.13;;;30.90;39.50;;;;;;10579732;27;20643;-70
2023/05/31 08:10:25;;;;;;;6.00;3.13;;;30.90;38.00;;;;;;10597522;27;20276;-70
2023/05/31 08:15:26;;;;;;;10.63;3.20;;;31.20;38.00;;;;;;10570951;27;20301;-69
2023/05/31 08:20:27;;;;;;;8.43;2.40;;;31.80;38.60;;;;;;10597413;27;20222;-70
2023/05/31 08:25:28;;;;;;;9.77;2.83;;;32.60;36.90;;;;;;10598253;27;20252;-70
2023/05/31 08:30:28;;;;;;;6.53;2.30;;;32.50;36.70;;;;;;10578737;28;20217;-70
2023/05/31 08:35:29;;;;;;;7.77;2.80;;;32.40;36.80;;;;;;10599498;28;20249;-70
2023/05/31 08:40:31;;;;;;;7.13;2.43;;;32.80;35.40;;;;;;10572802;28;20230;-70
2023/05/31 08:45:35;;;;;;;5.20;2.77;;;32.80;35.90;;;;;;10575835;28;20580;-70
2023/05/31 08:50:36;;;;;;;10.67;2.40;;;33.00;32.50;;;;;;10572627;28;20293;-70
2023/05/31 08:55:38;;;;;;;7.13;2.40;;;32.40;32.70;;;;;;10579817;27;20303;-71
2023/05/31 09:00:38;;;;;;;6.13;2.50;;;32.10;32.50;;;;;;10602660;27;20235;-70
2023/05/31 09:05:39;;;;;;;4.67;2.20;;;31.90;32.30;;;;;;10596838;27;20649;-69
2023/05/31 09:10:41;;;;;;;5.07;1.90;;;31.50;32.40;;;;;;10581476;27;20205;-70
2023/05/31 09:15:43;;;;;;;4.53;2.07;;;31.60;31.80;;;;;;10602602;27;20213;-69
2023/05/31 09:20:47;;;;;;;4.17;2.40;;;32.00;32.80;;;;;;10599933;27;20228;-70
2023/05/31 09:25:52;;;;;;;3.33;2.17;;;32.40;31.00;;;;;;10582205;27;20229;-71
2023/05/31 09:31:07;;;;;;;5.37;2.50;;;31.70;30.50;;;;;;10599627;27;20212;-71
2023/05/31 09:36:08;;;;;;;6.77;2.27;;;32.90;31.30;;;;;;10600315;27;20228;-71
2023/05/31 09:41:20;;;;;;;20.27;3.20;;;33.00;30.40;;;;;;10604014;27;20205;-70
2023/05/31 09:46:22;;;;;;;5.63;2.10;;;33.10;31.10;;;;;;10597035;27;20241;-69
2023/05/31 09:51:22;;;;;;;9.00;2.47;;;33.20;30.20;;;;;;10577268;27;20220;-69
2023/05/31 09:56:25;;;;;;;5.40;2.10;;;33.50;29.30;;;;;;10582597;27;20222;-69
2023/05/31 10:01:26;;;;;;;7.20;2.80;;;33.60;30.10;;;;;;10584116;27;20633;-69
2023/05/31 10:06:27;;;;;;;4.70;1.80;;;33.40;29.90;;;;;;10600785;27;20286;-68
2023/05/31 10:11:34;;;;;;;19.80;2.93;;;33.60;29.10;;;;;;10595628;27;20263;-69
2023/05/31 10:17:01;;;;;;;5.00;1.77;;;33.20;29.20;;;;;;10595593;27;20217;-69
2023/05/31 10:22:04;;;;;;;9.63;2.60;;;32.90;29.50;;;;;;10589148;27;20214;-69
2023/05/31 10:27:25;;;;;;;12.53;2.50;;;33.70;29.20;;;;;;10603657;27;20316;-70
2023/05/31 10:32:28;;;;;;;6.23;2.20;;;33.40;29.10;;;;;;10578943;27;20280;-69
2023/05/31 10:37:29;;;;;;;5.73;1.60;;;33.30;28.80;;;;;;10600144;27;20214;-69
2023/05/31 10:42:40;;;;;;;5.57;1.93;;;33.60;28.60;;;;;;10602398;27;20213;-70
2023/05/31 10:48:18;;;;;;;7.07;2.40;;;34.80;27.60;;;;;;10601867;27;20266;-71
2023/05/31 10:53:19;;;;;;;3.70;1.90;;;34.00;28.20;;;;;;10580884;27;20213;-71
2023/05/31 10:58:28;;;;;;;5.27;1.83;;;34.30;28.50;;;;;;10581707;27;20223;-69
2023/05/31 11:03:31;;;;;;;6.60;1.87;;;32.90;28.60;;;;;;10592971;27;20300;-70
2023/05/31 11:08:32;;;;;;;6.33;2.27;;;32.80;29.30;;;;;;10583399;27;20603;-69
2023/05/31 11:13:59;;;;;;;8.93;2.17;;;32.10;30.00;;;;;;10598782;27;20220;-69
2023/05/31 11:19:07;;;;;;;7.00;2.00;;;33.00;29.80;;;;;;10599008;27;20264;-70
2023/05/31 11:24:08;;;;;;;4.73;2.10;;;33.20;28.80;;;;;;10597898;27;20217;-71
2023/05/31 11:29:08;;;;;;;11.80;3.40;;;33.70;28.50;;;;;;10592518;27;20224;-70
2023/05/31 11:34:24;;;;;;;4.93;2.20;;;33.30;27.50;;;;;;10578940;27;20223;-68
2023/05/31 11:39:25;;;;;;;7.30;2.20;;;29.90;30.00;;;;;;10575660;27;20638;-69
2023/05/31 11:44:30;;;;;;;5.60;2.20;;;28.20;32.20;;;;;;10591252;27;20728;-69
2023/05/31 11:49:33;;;;;;;3.17;1.73;;;26.90;35.20;;;;;;10600221;27;20208;-69
2023/05/31 11:54:34;;;;;;;6.77;2.10;;;26.20;34.70;;;;;;10597603;27;20692;-70
2023/05/31 11:59:37;;;;;;;3.90;2.23;;;26.10;36.60;;;;;;10592599;27;20228;-68
2023/05/31 12:04:40;;;;;;;4.07;2.00;;;26.10;36.40;;;;;;10596535;27;20213;-69
2023/05/31 12:09:41;;;;;;;7.17;2.00;;;26.10;35.80;;;;;;10592139;27;20233;-68
2023/05/31 12:14:54;;;;;;;3.77;2.00;;;26.20;35.00;;;;;;10577858;27;20783;-68
2023/05/31 12:19:55;;;;;;;4.73;2.10;;;26.20;36.40;;;;;;10577324;27;20300;-68
2023/05/31 12:24:55;;;;;;;3.70;2.00;;;26.10;36.80;;;;;;10583827;27;20213;-68
2023/05/31 12:29:57;;;;;;;6.70;2.20;;;25.90;35.10;;;;;;10599295;27;20277;-69
2023/05/31 12:35:08;;;;;;;2.70;1.83;;;25.70;36.90;;;;;;10588866;27;20273;-68
2023/05/31 12:40:14;;;;;;;3.30;1.90;;;25.70;36.60;;;;;;10600023;27;20223;-68
2023/05/31 12:45:18;;;;;;;2.57;1.87;;;25.70;36.60;;;;;;10609315;27;20677;-69
2023/05/31 12:50:19;;;;;;;9.80;1.90;;;25.80;35.90;;;;;;10604377;27;20172;-69
2023/05/31 12:55:20;;;;;;;4.90;1.80;;;25.90;36.60;;;;;;10590041;27;20240;-69
2023/05/31 13:00:20;;;;;;;6.37;2.07;;;26.10;35.90;;;;;;10602532;27;20235;-70
2023/05/31 13:05:21;;;;;;;3.20;2.20;;;26.10;36.30;;;;;;10611039;27;20675;-69
2023/05/31 13:10:21;;;;;;;11.37;2.33;;;26.00;36.70;;;;;;10584802;27;20197;-69
2023/05/31 13:15:22;;;;;;;9.47;2.00;;;26.00;36.60;;;;;;10591917;27;20521;-68
2023/05/31 13:20:23;;;;;;;3.83;1.73;;;25.80;36.40;;;;;;10584110;27;20211;-68
2023/05/31 13:25:24;;;;;;;15.77;2.53;;;25.70;36.00;;;;;;10611154;27;20224;-69
2023/05/31 13:30:24;;;;;;;3.53;1.67;;;25.90;36.60;;;;;;10610201;27;20224;-70
2023/05/31 13:35:25;;;;;;;4.00;2.07;;;26.00;36.20;;;;;;10610622;27;20792;-70
2023/05/31 13:40:26;;;;;;;6.60;2.73;;;26.10;37.40;;;;;;10582228;27;20226;-70
2023/05/31 13:45:26;;;;;;;9.27;1.87;;;26.40;36.50;;;;;;10585208;27;20571;-70
2023/05/31 13:50:33;;;;;;;3.30;2.00;;;26.30;36.50;;;;;;10577790;27;20270;-69
2023/05/31 13:55:33;;;;;;;3.70;1.93;;;26.30;36.30;;;;;;10588571;27;20748;-69
2023/05/31 14:00:34;;;;;;;3.43;1.57;;;26.00;36.00;;;;;;10586410;27;20319;-69
2023/05/31 14:05:35;;;;;;;7.53;1.63;;;26.00;36.90;;;;;;10601766;27;20217;-70
2023/05/31 14:10:36;;;;;;;3.90;1.60;;;26.10;36.50;;;;;;10598727;27;20259;-67
2023/05/31 14:15:36;;;;;;;5.87;1.57;;;26.00;36.60;;;;;;10583336;27;20306;-69
2023/05/31 14:20:37;;;;;;;7.30;2.20;;;26.10;37.70;;;;;;10594102;27;20220;-68
2023/05/31 14:25:38;;;;;;;3.60;1.63;;;26.00;38.50;;;;;;10602829;27;20742;-69
2023/05/31 14:30:38;;;;;;;4.77;1.80;;;26.20;38.10;;;;;;10595372;27;20221;-68
2023/05/31 14:35:39;;;;;;;2.73;1.73;;;26.30;37.40;;;;;;10606599;27;20232;-69
2023/05/31 14:40:39;;;;;;;4.03;1.90;;;26.10;38.10;;;;;;10599393;27;20249;-69
2023/05/31 14:45:40;;;;;;;4.67;1.90;;;26.10;38.20;;;;;;10598411;27;20213;-69
2023/05/31 14:50:40;;;;;;;4.60;2.03;;;26.20;37.50;;;;;;10582745;27;20244;-70
2023/05/31 14:55:41;;;;;;;4.23;1.60;;;26.20;37.00;;;;;;10597986;27;20224;-69
2023/05/31 15:00:42;;;;;;;5.30;1.67;;;26.10;38.30;;;;;;10597858;27;20824;-69
2023/05/31 15:05:42;;;;;;;6.57;1.90;;;26.10;37.90;;;;;;10604161;27;20247;-70
2023/05/31 15:10:43;;;;;;;2.03;1.60;;;26.10;38.30;;;;;;10592549;27;20327;-70
2023/05/31 15:15:43;;;;;;;6.60;2.00;;;26.20;38.50;;;;;;10598582;27;20217;-69
2023/05/31 15:20:44;;;;;;;2.57;1.60;;;26.20;38.00;;;;;;10584898;27;20285;-69
2023/05/31 15:25:45;;;;;;;5.63;1.53;;;26.20;37.20;;;;;;10580560;27;20230;-69
2023/05/31 15:30:45;;;;;;;5.97;1.60;;;26.10;37.80;;;;;;10597065;27;20304;-71
2023/05/31 15:35:46;;;;;;;2.10;1.50;;;26.20;37.80;;;;;;10576129;27;20265;-70
2023/05/31 15:40:47;;;;;;;5.90;2.00;;;26.10;38.00;;;;;;10596154;27;20221;-69
2023/05/31 15:45:48;;;;;;;4.80;1.63;;;26.10;37.70;;;;;;10595385;27;20212;-70
2023/05/31 15:50:48;;;;;;;4.33;1.70;;;26.00;37.90;;;;;;10602101;27;20216;-70
2023/05/31 15:55:49;;;;;;;2.17;1.67;;;25.90;38.20;;;;;;10599688;27;20224;-68
2023/05/31 16:00:50;;;;;;;4.87;2.10;;;25.90;38.60;;;;;;10598414;27;20854;-69
2023/05/31 16:05:50;;;;;;;2.33;1.63;;;25.90;38.50;;;;;;10596400;27;20217;-69
2023/05/31 16:10:51;;;;;;;3.23;1.60;;;25.90;38.30;;;;;;10594677;27;20216;-69
2023/05/31 16:15:52;;;;;;;3.60;1.70;;;25.90;38.30;;;;;;10591248;27;20217;-69
2023/05/31 16:20:52;;;;;;;2.87;1.50;;;26.00;38.50;;;;;;10593800;27;20754;-70
2023/05/31 16:25:53;;;;;;;4.30;2.00;;;25.90;38.30;;;;;;10592432;28;20820;-70
2023/05/31 16:30:53;;;;;;;2.20;1.40;;;25.90;38.80;;;;;;10597544;28;20216;-69
2023/05/31 16:35:54;;;;;;;4.93;1.60;;;25.80;38.70;;;;;;10598559;28;20312;-69
2023/05/31 16:40:54;;;;;;;4.17;1.70;;;25.70;38.80;;;;;;10571919;28;20232;-70
2023/05/31 16:45:57;;;;;;;1.83;1.47;;;25.70;38.80;;;;;;10575574;28;20308;-68
2023/05/31 16:50:58;;;;;;;3.03;1.97;;;25.70;39.00;;;;;;10574916;28;20216;-69
2023/05/31 16:55:59;;;;;;;6.63;1.83;;;25.60;39.10;;;;;;10580923;28;20222;-70
2023/05/31 17:01:00;;;;;;;2.53;1.50;;;25.60;39.90;;;;;;10591879;28;20221;-69
2023/05/31 17:06:00;;;;;;;7.43;1.87;;;25.60;40.00;;;;;;10591785;28;20209;-69
2023/05/31 17:11:01;;;;;;;5.03;1.70;;;25.50;39.90;;;;;;10594381;28;20262;-69
2023/05/31 17:16:02;;;;;;;3.23;1.90;;;25.50;40.20;;;;;;10592854;27;20214;-69
2023/05/31 17:21:03;;;;;;;3.43;1.47;;;25.50;40.20;;;;;;10602037;27;20252;-69
2023/05/31 17:26:06;;;;;;;2.47;1.60;;;25.40;40.10;;;;;;10598712;27;20222;-69
2023/05/31 17:31:10;;;;;;;5.10;2.40;;;25.30;40.90;;;;;;10602242;27;20263;-69
2023/05/31 17:36:11;;;;;;;7.50;2.30;;;25.30;44.30;;;;;;10597419;27;20618;-69
2023/05/31 17:41:15;;;;;;;4.57;2.37;;;25.20;47.90;;;;;;10580643;27;20296;-68
2023/05/31 17:46:15;;;;;;;8.07;2.17;;;25.00;48.80;;;;;;10602499;27;20285;-69
2023/05/31 17:51:16;;;;;;;6.93;2.97;;;24.90;49.60;;;;;;10598868;27;20262;-70
2023/05/31 17:56:16;;;;;;;7.00;2.57;;;24.80;50.10;;;;;;10602104;27;20627;-69
2023/05/31 18:01:17;;;;;;;8.80;2.30;;;24.70;51.10;;;;;;10577020;27;20549;-69
2023/05/31 18:06:17;;;;;;;5.83;2.17;;;24.50;51.20;;;;;;10590090;27;20260;-68
2023/05/31 18:11:18;;;;;;;3.83;2.63;;;24.40;51.30;;;;;;10605273;27;20213;-69
2023/05/31 18:16:22;;;;;;;4.73;2.07;;;24.30;51.90;;;;;;10602437;27;20221;-69
2023/05/31 18:21:22;;;;;;;7.27;2.27;;;24.20;52.00;;;;;;10599076;27;20215;-69
2023/05/31 18:26:23;;;;;;;5.40;2.30;;;24.00;52.60;;;;;;10575019;27;20226;-68
2023/05/31 18:31:23;;;;;;;5.10;2.03;;;23.90;52.40;;;;;;10602485;27;20217;-69
2023/05/31 18:36:27;;;;;;;4.03;1.90;;;23.70;52.80;;;;;;10610971;27;20703;-69
2023/05/31 18:41:28;;;;;;;3.67;1.90;;;23.60;53.20;;;;;;10576011;27;20638;-70
2023/05/31 18:46:30;;;;;;;4.10;2.30;;;23.50;53.40;;;;;;10601021;27;20260;-69
2023/05/31 18:51:31;;;;;;;5.90;2.30;;;23.30;53.60;;;;;;10593635;27;20305;-69
2023/05/31 18:56:31;;;;;;;4.37;2.30;;;23.20;53.90;;;;;;10599257;27;20769;-70
2023/05/31 19:01:35;;;;;;;5.83;2.10;;;23.10;54.20;;;;;;10605481;27;20216;-68
2023/05/31 19:06:36;;;;;;;3.37;1.90;;;23.00;54.60;;;;;;10575436;27;20579;-68
2023/05/31 19:11:39;;;;;;;6.17;2.07;;;22.80;54.90;;;;;;10580085;27;20280;-68
2023/05/31 19:16:40;;;;;;;5.57;2.30;;;22.70;55.30;;;;;;10593998;27;20720;-69
2023/05/31 19:21:41;;;;;;;5.60;2.20;;;22.50;55.90;;;;;;10597450;27;20216;-69
2023/05/31 19:26:41;;;;;;;6.13;2.27;;;22.40;55.90;;;;;;10594063;27;20225;-68
2023/05/31 19:31:42;;;;;;;7.33;2.47;;;22.30;55.80;;;;;;10587177;27;20637;-69
2023/05/31 19:36:43;;;;;;;4.03;2.20;;;22.20;55.60;;;;;;10575356;27;20222;-69
2023/05/31 19:41:43;;;;;;;3.60;2.00;;;22.10;55.60;;;;;;10577593;27;20237;-69
2023/05/31 19:46:44;;;;;;;5.13;2.10;;;22.00;55.80;;;;;;10592668;27;20220;-70
2023/05/31 19:51:44;;;;;;;6.07;2.17;;;22.00;56.00;;;;;;10579260;27;20209;-70
2023/05/31 19:56:45;;;;;;;6.20;2.20;;;21.80;56.10;;;;;;10595527;27;20221;-69
2023/05/31 20:01:45;;;;;;;5.33;2.60;;;21.80;56.40;;;;;;10593894;27;20511;-70
2023/05/31 20:06:46;;;;;;;4.63;2.20;;;21.70;56.50;;;;;;10595942;27;20256;-69
2023/05/31 20:11:47;;;;;;;3.30;2.23;;;21.60;56.90;;;;;;10601981;27;20712;-69
2023/05/31 20:16:47;;;;;;;4.87;2.50;;;21.50;57.20;;;;;;10595701;27;20228;-70
2023/05/31 20:21:48;;;;;;;5.13;2.77;;;21.40;57.50;;;;;;10601147;27;20224;-70
2023/05/31 20:26:49;;;;;;;4.03;2.57;;;21.20;57.90;;;;;;10576660;27;20253;-70
2023/05/31 20:31:49;;;;;;;4.17;2.33;;;21.10;58.20;;;;;;10583893;28;20241;-68
2023/05/31 20:36:50;;;;;;;6.83;2.70;;;20.90;58.70;;;;;;10591600;28;20721;-68
2023/05/31 20:41:51;;;;;;;4.43;2.30;;;20.90;58.90;;;;;;10596331;28;20266;-68
2023/05/31 20:46:52;;;;;;;4.33;2.13;;;20.80;59.30;;;;;;10593417;28;20363;-68
2023/05/31 20:51:52;;;;;;;4.90;2.03;;;20.70;59.30;;;;;;10579751;27;20301;-69
2023/05/31 20:56:53;;;;;;;5.27;2.37;;;20.70;59.50;;;;;;10609979;27;20229;-68
2023/05/31 21:01:55;;;;;;;6.00;2.30;;;20.60;59.50;;;;;;10602050;27;20699;-69
2023/05/31 21:06:55;;;;;;;5.93;2.07;;;20.60;59.70;;;;;;10605273;27;20221;-68
2023/05/31 21:11:56;;;;;;;5.77;2.30;;;20.50;59.90;;;;;;10600856;27;20214;-69
2023/05/31 21:16:58;;;;;;;8.17;2.27;;;20.50;60.30;;;;;;10601438;27;20221;-69
2023/05/31 21:21:58;;;;;;;4.27;2.20;;;20.40;60.90;;;;;;10600470;27;20282;-69
2023/05/31 21:27:02;;;;;;;6.33;2.37;;;20.30;61.00;;;;;;10582692;27;20252;-68
2023/05/31 21:32:03;;;;;;;3.20;2.00;;;20.20;61.50;;;;;;10586752;27;20591;-70
2023/05/31 21:37:04;;;;;;;6.43;2.47;;;20.10;62.00;;;;;;10579062;27;20240;-69
2023/05/31 21:42:05;;;;;;;4.73;2.57;;;20.00;62.40;;;;;;10598088;27;20596;-69
2023/05/31 21:47:07;;;;;;;6.67;2.73;;;19.90;63.10;;;;;;10602115;27;20603;-69
2023/05/31 21:52:08;;;;;;;3.53;2.50;;;19.80;63.90;;;;;;10598159;27;20218;-69
2023/05/31 21:57:11;;;;;;;5.10;2.63;;;19.70;65.00;;;;;;10597525;27;20217;-69
2023/05/31 22:02:12;;;;;;;4.27;2.60;;;19.50;66.30;;;;;;10577899;27;20293;-70
2023/05/31 22:07:13;;;;;;;5.50;2.30;;;19.40;66.10;;;;;;10583443;27;20221;-70
2023/05/31 22:12:13;;;;;;;5.37;2.47;;;19.30;66.40;;;;;;10578190;27;20241;-68
2023/05/31 22:17:17;;;;;;;4.90;2.70;;;19.20;66.90;;;;;;10585477;27;20221;-69
2023/05/31 22:22:18;;;;;;;6.47;2.77;;;19.10;67.20;;;;;;10599899;27;20214;-70
2023/05/31 22:27:18;;;;;;;5.03;2.40;;;19.00;67.80;;;;;;10597162;27;20240;-70
2023/05/31 22:32:19;;;;;;;5.27;2.53;;;18.90;68.30;;;;;;10587694;27;20229;-69
2023/05/31 22:37:20;;;;;;;4.10;2.53;;;18.80;68.80;;;;;;10575605;27;20341;-70
2023/05/31 22:42:20;;;;;;;5.63;3.00;;;18.70;69.30;;;;;;10601296;27;20271;-69
2023/05/31 22:47:21;;;;;;;8.80;2.90;;;18.60;69.70;;;;;;10580253;27;20225;-69
2023/05/31 22:52:22;;;;;;;7.17;2.83;;;18.50;70.10;;;;;;10607848;27;20255;-69
2023/05/31 22:57:22;;;;;;;4.00;2.90;;;18.50;70.50;;;;;;10592584;27;20222;-70
2023/05/31 23:02:27;;;;;;;3.70;2.43;;;18.30;71.10;;;;;;10600699;27;20231;-67
2023/05/31 23:07:29;;;;;;;2.93;2.30;;;18.10;72.00;;;;;;10576994;27;20214;-70
2023/05/31 23:12:33;;;;;;;3.70;2.10;;;17.90;73.10;;;;;;10581252;27;20220;-68
2023/05/31 23:17:38;;;;;;;6.03;2.50;;;17.80;74.40;;;;;;10574921;27;20681;-69
2023/05/31 23:22:42;;;;;;;2.90;2.10;;;17.70;75.10;;;;;;10600000;27;20724;-70
2023/05/31 23:27:43;;;;;;;4.47;2.37;;;17.60;75.60;;;;;;10595257;27;20225;-70
2023/05/31 23:32:44;;;;;;;6.90;2.77;;;17.50;75.40;;;;;;10581538;27;20216;-69
2023/05/31 23:37:44;;;;;;;4.10;2.30;;;17.60;75.40;;;;;;10575985;27;20231;-68
2023/05/31 23:42:45;;;;;;;5.03;2.77;;;17.60;75.20;;;;;;10597326;27;20275;-68
2023/05/31 23:47:46;;;;;;;4.67;2.50;;;17.60;75.10;;;;;;10594385;27;20225;-68
2023/05/31 23:52:46;;;;;;;5.80;2.43;;;17.60;74.90;;;;;;10580570;27;20222;-69
2023/05/31 23:57:50;;;;;;;5.13;2.50;;;17.60;75.20;;;;;;10594255;27;20236;-68
